sensor_id;sensor_type;location;lat;lon;timestamp;pressure;altitude;pressure_sealevel;temperature;humidity
11643;BME280;5877;50.930;6.918;2024-03-08T00:01:28;101088.75;;;6.18;52.00
11643;BME280;5877;50.930;6.918;2024-03-08T00:11:10;101151.81;;;6.75;51.17
11643;BME280;5877;50.930;6.918;2024-03-08T00:20:52;101149.31;;;6.59;52.11
11643;BME280;5877;50.930;6.918;2024-03-08T00:30:35;101150.22;;;6.43;51.50
11643;BME280;5877;50.930;6.918;2024-03-08T00:40:18;101138.75;;;6.22;52.29
11643;BME280;5877;50.930;6.918;2024-03-08T00:50:01;101116.69;;;6.01;53.02
11643;BME280;5877;50.930;6.918;2024-03-08T00:59:46;101000.69;;;5.35;52.89
11643;BME280;5877;50.930;6.918;2024-03-08T01:09:29;101112.16;;;5.95;52.94
11643;BME280;5877;50.930;6.918;2024-03-08T01:19:11;101056.38;;;5.18;54.57
11643;BME280;5877;50.930;6.918;2024-03-08T01:28:58;101082.47;;;5.57;54.57
11643;BME280;5877;50.930;6.918;2024-03-08T01:38:42;101070.22;;;5.18;55.79
11643;BME280;5877;50.930;6.918;2024-03-08T01:48:26;101053.50;;;4.97;56.75
11643;BME280;5877;50.930;6.918;2024-03-08T01:58:10;101049.88;;;5.69;54.12
11643;BME280;5877;50.930;6.918;2024-03-08T02:07:53;101047.72;;;5.34;55.02
11643;BME280;5877;50.930;6.918;2024-03-08T02:17:36;101000.66;;;4.96;55.17
11643;BME280;5877;50.930;6.918;2024-03-08T02:27:24;101038.25;;;5.41;56.02
11643;BME280;5877;50.930;6.918;2024-03-08T02:37:07;101029.59;;;4.85;56.68
11643;BME280;5877;50.930;6.918;2024-03-08T02:46:52;101010.88;;;5.53;55.11
11643;BME280;5877;50.930;6.918;2024-03-08T02:56:37;101005.56;;;5.38;55.24
11643;BME280;5877;50.930;6.918;2024-03-08T03:06:19;100996.28;;;5.36;55.53
11643;BME280;5877;50.930;6.918;2024-03-08T03:16:04;101001.34;;;5.29;55.50
11643;BME280;5877;50.930;6.918;2024-03-08T03:25:46;100991.50;;;5.16;55.76
11643;BME280;5877;50.930;6.918;2024-03-08T03:35:32;100984.63;;;5.23;55.69
11643;BME280;5877;50.930;6.918;2024-03-08T03:45:16;100982.91;;;5.08;55.59
11643;BME280;5877;50.930;6.918;2024-03-08T03:55:03;100978.91;;;4.81;57.07
11643;BME280;5877;50.930;6.918;2024-03-08T04:04:47;100948.19;;;4.76;56.56
11643;BME280;5877;50.930;6.918;2024-03-08T04:14:29;100862.16;;;3.74;57.54
11643;BME280;5877;50.930;6.918;2024-03-08T04:24:11;100938.31;;;4.39;56.81
11643;BME280;5877;50.930;6.918;2024-03-08T04:33:55;100952.28;;;4.63;57.01
11643;BME280;5877;50.930;6.918;2024-03-08T04:43:38;100922.41;;;4.34;57.37
11643;BME280;5877;50.930;6.918;2024-03-08T04:53:21;100943.84;;;4.44;57.57
11643;BME280;5877;50.930;6.918;2024-03-08T05:03:03;100908.88;;;4.71;55.95
11643;BME280;5877;50.930;6.918;2024-03-08T05:12:49;100743.41;;;3.68;56.38
11643;BME280;5877;50.930;6.918;2024-03-08T05:22:35;100922.03;;;4.70;56.65
11643;BME280;5877;50.930;6.918;2024-03-08T05:32:17;100890.72;;;4.39;57.11
11643;BME280;5877;50.930;6.918;2024-03-08T05:41:59;100912.41;;;4.86;57.01
11643;BME280;5877;50.930;6.918;2024-03-08T05:51:43;100866.72;;;4.92;56.21
11643;BME280;5877;50.930;6.918;2024-03-08T06:01:26;100796.72;;;4.27;56.73
11643;BME280;5877;50.930;6.918;2024-03-08T06:11:09;100870.66;;;4.80;56.85
11643;BME280;5877;50.930;6.918;2024-03-08T06:20:51;100887.28;;;5.10;57.17
11643;BME280;5877;50.930;6.918;2024-03-08T06:30:36;100783.06;;;4.33;57.13
11643;BME280;5877;50.930;6.918;2024-03-08T06:40:19;100866.16;;;5.13;56.12
11643;BME280;5877;50.930;6.918;2024-03-08T06:50:01;100848.72;;;5.44;55.52
11643;BME280;5877;50.930;6.918;2024-03-08T06:59:43;100872.41;;;6.03;55.08
11643;BME280;5877;50.930;6.918;2024-03-08T07:09:26;100866.63;;;6.31;53.62
11643;BME280;5877;50.930;6.918;2024-03-08T07:19:08;100861.19;;;6.55;53.68
11643;BME280;5877;50.930;6.918;2024-03-08T07:28:51;100838.22;;;10.65;44.32
11643;BME280;5877;50.930;6.918;2024-03-08T07:38:33;100828.88;;;11.27;43.34
11643;BME280;5877;50.930;6.918;2024-03-08T07:48:16;100819.56;;;13.04;39.53
11643;BME280;5877;50.930;6.918;2024-03-08T07:57:59;100716.53;;;11.72;41.04
11643;BME280;5877;50.930;6.918;2024-03-08T08:07:45;100790.41;;;11.64;41.81
11643;BME280;5877;50.930;6.918;2024-03-08T08:17:33;100771.69;;;13.37;38.82
11643;BME280;5877;50.930;6.918;2024-03-08T08:27:17;100768.09;;;13.96;37.48
11643;BME280;5877;50.930;6.918;2024-03-08T08:37:01;100742.47;;;12.48;39.89
11643;BME280;5877;50.930;6.918;2024-03-08T08:46:44;100654.22;;;11.73;40.61
11643;BME280;5877;50.930;6.918;2024-03-08T08:56:26;100718.53;;;12.98;40.18
11643;BME280;5877;50.930;6.918;2024-03-08T09:06:10;100711.09;;;13.95;37.87
11643;BME280;5877;50.930;6.918;2024-03-08T09:15:53;100718.41;;;13.46;38.89
11643;BME280;5877;50.930;6.918;2024-03-08T09:25:36;100582.22;;;13.52;37.94
11643;BME280;5877;50.930;6.918;2024-03-08T09:35:20;100654.78;;;13.19;38.99
11643;BME280;5877;50.930;6.918;2024-03-08T09:45:11;100671.34;;;13.08;39.51
11643;BME280;5877;50.930;6.918;2024-03-08T09:54:53;100643.25;;;11.82;41.45
11643;BME280;5877;50.930;6.918;2024-03-08T10:04:35;100628.44;;;12.66;40.81
11643;BME280;5877;50.930;6.918;2024-03-08T10:14:18;100570.44;;;11.76;40.93
11643;BME280;5877;50.930;6.918;2024-03-08T10:24:02;100614.28;;;11.64;41.52
11643;BME280;5877;50.930;6.918;2024-03-08T10:33:46;100590.75;;;11.69;40.72
11643;BME280;5877;50.930;6.918;2024-03-08T10:43:34;100569.28;;;11.72;40.39
11643;BME280;5877;50.930;6.918;2024-03-08T10:53:23;100571.19;;;12.01;39.98
11643;BME280;5877;50.930;6.918;2024-03-08T11:03:05;100551.53;;;11.49;40.33
11643;BME280;5877;50.930;6.918;2024-03-08T11:12:48;100521.03;;;11.48;40.36
11643;BME280;5877;50.930;6.918;2024-03-08T11:22:33;100530.91;;;12.31;39.77
11643;BME280;5877;50.930;6.918;2024-03-08T11:32:16;100522.88;;;12.79;38.82
11643;BME280;5877;50.930;6.918;2024-03-08T11:42:00;100482.97;;;11.87;39.36
11643;BME280;5877;50.930;6.918;2024-03-08T11:51:44;100479.22;;;12.37;38.50
11643;BME280;5877;50.930;6.918;2024-03-08T12:01:29;100477.47;;;12.30;38.86
11643;BME280;5877;50.930;6.918;2024-03-08T12:11:13;100461.91;;;13.22;37.32
11643;BME280;5877;50.930;6.918;2024-03-08T12:21:10;100434.94;;;12.57;38.22
11643;BME280;5877;50.930;6.918;2024-03-08T12:30:53;100441.97;;;13.26;37.34
11643;BME280;5877;50.930;6.918;2024-03-08T12:40:40;100432.81;;;13.17;36.80
11643;BME280;5877;50.930;6.918;2024-03-08T12:50:24;100423.97;;;13.23;37.18
11643;BME280;5877;50.930;6.918;2024-03-08T13:00:11;100382.94;;;13.16;36.50
11643;BME280;5877;50.930;6.918;2024-03-08T13:10:01;100369.78;;;13.73;36.13
11643;BME280;5877;50.930;6.918;2024-03-08T13:19:44;100355.47;;;13.69;35.73
11643;BME280;5877;50.930;6.918;2024-03-08T13:29:27;100355.91;;;14.11;35.35
11643;BME280;5877;50.930;6.918;2024-03-08T13:39:09;100337.50;;;13.99;35.88
11643;BME280;5877;50.930;6.918;2024-03-08T13:49:03;100310.53;;;14.14;35.62
11643;BME280;5877;50.930;6.918;2024-03-08T13:58:47;100284.63;;;14.11;35.25
11643;BME280;5877;50.930;6.918;2024-03-08T14:08:33;100278.66;;;13.48;36.16
11643;BME280;5877;50.930;6.918;2024-03-08T14:18:19;100244.22;;;13.38;36.28
11643;BME280;5877;50.930;6.918;2024-03-08T14:28:01;100243.19;;;13.56;36.14
11643;BME280;5877;50.930;6.918;2024-03-08T14:37:46;100232.09;;;14.09;35.59
11643;BME280;5877;50.930;6.918;2024-03-08T14:47:28;100223.88;;;14.06;36.08
11643;BME280;5877;50.930;6.918;2024-03-08T14:57:10;100194.53;;;14.24;36.16
11643;BME280;5877;50.930;6.918;2024-03-08T15:06:53;100202.78;;;13.89;36.09
11643;BME280;5877;50.930;6.918;2024-03-08T15:16:37;100171.25;;;13.77;36.08
11643;BME280;5877;50.930;6.918;2024-03-08T15:26:24;100142.50;;;13.59;36.59
11643;BME280;5877;50.930;6.918;2024-03-08T15:36:08;100145.00;;;13.87;36.27
11643;BME280;5877;50.930;6.918;2024-03-08T15:45:52;100159.44;;;13.63;35.93
11643;BME280;5877;50.930;6.918;2024-03-08T15:55:35;100149.25;;;13.16;36.95
11643;BME280;5877;50.930;6.918;2024-03-08T16:05:18;100149.41;;;13.26;37.25
11643;BME280;5877;50.930;6.918;2024-03-08T16:15:02;100094.44;;;13.01;36.83
11643;BME280;5877;50.930;6.918;2024-03-08T16:24:47;100144.81;;;13.05;37.88
11643;BME280;5877;50.930;6.918;2024-03-08T16:34:33;100087.41;;;12.57;38.69
11643;BME280;5877;50.930;6.918;2024-03-08T16:44:18;100126.44;;;12.31;39.66
11643;BME280;5877;50.930;6.918;2024-03-08T16:54:02;100120.09;;;12.16;40.31
11643;BME280;5877;50.930;6.918;2024-03-08T17:03:44;100090.66;;;11.90;40.76
11643;BME280;5877;50.930;6.918;2024-03-08T17:13:41;100065.97;;;11.91;40.61
11643;BME280;5877;50.930;6.918;2024-03-08T17:23:24;100117.41;;;11.76;41.81
11643;BME280;5877;50.930;6.918;2024-03-08T17:33:09;100125.13;;;12.17;41.57
11643;BME280;5877;50.930;6.918;2024-03-08T17:43:11;100120.06;;;11.64;42.45
11643;BME280;5877;50.930;6.918;2024-03-08T17:52:56;100107.34;;;11.73;42.41
11643;BME280;5877;50.930;6.918;2024-03-08T18:02:48;100092.53;;;11.55;42.88
11643;BME280;5877;50.930;6.918;2024-03-08T18:12:32;100119.38;;;11.10;43.93
11643;BME280;5877;50.930;6.918;2024-03-08T18:22:15;100110.13;;;11.19;43.91
11643;BME280;5877;50.930;6.918;2024-03-08T18:31:58;100064.03;;;10.58;44.74
11643;BME280;5877;50.930;6.918;2024-03-08T18:41:40;100095.31;;;10.71;45.28
11643;BME280;5877;50.930;6.918;2024-03-08T18:51:25;100096.06;;;11.02;44.89
11643;BME280;5877;50.930;6.918;2024-03-08T19:01:08;100062.13;;;10.77;45.70
11643;BME280;5877;50.930;6.918;2024-03-08T19:10:51;100066.22;;;10.73;45.37
11643;BME280;5877;50.930;6.918;2024-03-08T19:20:36;100062.06;;;10.54;46.17
11643;BME280;5877;50.930;6.918;2024-03-08T19:30:19;100057.16;;;10.46;46.49
11643;BME280;5877;50.930;6.918;2024-03-08T19:40:11;100048.59;;;10.38;46.89
11643;BME280;5877;50.930;6.918;2024-03-08T19:50:04;100040.66;;;10.80;45.85
11643;BME280;5877;50.930;6.918;2024-03-08T19:59:51;100028.88;;;10.36;46.54
11643;BME280;5877;50.930;6.918;2024-03-08T20:09:35;100007.97;;;10.29;46.57
11643;BME280;5877;50.930;6.918;2024-03-08T20:19:20;99865.56;;;9.16;47.14
11643;BME280;5877;50.930;6.918;2024-03-08T20:29:03;99988.00;;;9.68;47.50
11643;BME280;5877;50.930;6.918;2024-03-08T20:38:50;99990.78;;;9.55;47.90
11643;BME280;5877;50.930;6.918;2024-03-08T20:48:34;99969.31;;;9.65;47.44
11643;BME280;5877;50.930;6.918;2024-03-08T20:58:17;99991.66;;;9.49;47.85
11643;BME280;5877;50.930;6.918;2024-03-08T21:08:02;99989.69;;;9.44;48.16
11643;BME280;5877;50.930;6.918;2024-03-08T21:17:49;99944.16;;;8.91;48.60
11643;BME280;5877;50.930;6.918;2024-03-08T21:27:34;100007.00;;;9.09;48.56
11643;BME280;5877;50.930;6.918;2024-03-08T21:37:18;100002.53;;;8.91;49.48
11643;BME280;5877;50.930;6.918;2024-03-08T21:47:02;100001.16;;;8.64;50.44
11643;BME280;5877;50.930;6.918;2024-03-08T21:56:48;100004.88;;;8.50;51.02
11643;BME280;5877;50.930;6.918;2024-03-08T22:06:31;99982.72;;;8.21;51.69
11643;BME280;5877;50.930;6.918;2024-03-08T22:16:36;99981.16;;;8.94;50.48
11643;BME280;5877;50.930;6.918;2024-03-08T23:01:41;99960.41;;;8.74;51.58
11643;BME280;5877;50.930;6.918;2024-03-08T23:22:25;99936.47;;;8.21;52.37
11643;BME280;5877;50.930;6.918;2024-03-08T23:32:07;99945.75;;;8.49;51.43
11643;BME280;5877;50.930;6.918;2024-03-08T23:42:14;99947.81;;;8.65;50.83
11643;BME280;5877;50.930;6.918;2024-03-08T23:51:57;99935.00;;;8.32;51.76
